sensor_id;sensor_type;location;lat;lon;timestamp;P1;durP1;ratioP1;P2;durP2;ratioP2
74945;SDS011;63509;45.250;38.102;2023-12-14T00:01:11;14.07;;;6.20;;
74945;SDS011;63509;45.250;38.102;2023-12-14T00:03:39;10.57;;;6.53;;
74945;SDS011;63509;45.250;38.102;2023-12-14T00:06:12;22.35;;;7.45;;
74945;SDS011;63509;45.250;38.102;2023-12-14T00:08:39;13.77;;;7.47;;
74945;SDS011;63509;45.250;38.102;2023-12-14T00:11:09;13.13;;;6.93;;
74945;SDS011;63509;45.250;38.102;2023-12-14T00:13:36;11.77;;;5.13;;
74945;SDS011;63509;45.250;38.102;2023-12-14T00:16:03;15.38;;;8.25;;
74945;SDS011;63509;45.250;38.102;2023-12-14T00:18:30;12.02;;;6.78;;
74945;SDS011;63509;45.250;38.102;2023-12-14T00:20:56;9.75;;;5.60;;
74945;SDS011;63509;45.250;38.102;2023-12-14T00:23:22;11.70;;;6.68;;
74945;SDS011;63509;45.250;38.102;2023-12-14T00:25:49;11.10;;;5.72;;
74945;SDS011;63509;45.250;38.102;2023-12-14T00:28:15;13.40;;;6.93;;
74945;SDS011;63509;45.250;38.102;2023-12-14T00:30:41;14.60;;;5.95;;
74945;SDS011;63509;45.250;38.102;2023-12-14T00:33:08;11.80;;;5.15;;
74945;SDS011;63509;45.250;38.102;2023-12-14T00:35:34;11.45;;;6.40;;
74945;SDS011;63509;45.250;38.102;2023-12-14T00:38:00;11.40;;;4.97;;
74945;SDS011;63509;45.250;38.102;2023-12-14T00:40:26;11.45;;;6.50;;
74945;SDS011;63509;45.250;38.102;2023-12-14T00:42:52;10.93;;;5.68;;
74945;SDS011;63509;45.250;38.102;2023-12-14T00:45:18;14.85;;;8.60;;
74945;SDS011;63509;45.250;38.102;2023-12-14T00:47:44;13.88;;;6.53;;
74945;SDS011;63509;45.250;38.102;2023-12-14T00:50:10;13.50;;;6.82;;
74945;SDS011;63509;45.250;38.102;2023-12-14T00:52:36;11.70;;;6.18;;
74945;SDS011;63509;45.250;38.102;2023-12-14T00:55:02;12.45;;;7.10;;
74945;SDS011;63509;45.250;38.102;2023-12-14T00:57:28;10.63;;;5.55;;
74945;SDS011;63509;45.250;38.102;2023-12-14T00:59:55;12.20;;;6.53;;
74945;SDS011;63509;45.250;38.102;2023-12-14T01:02:21;13.75;;;6.22;;
74945;SDS011;63509;45.250;38.102;2023-12-14T01:04:47;9.63;;;5.32;;
74945;SDS011;63509;45.250;38.102;2023-12-14T01:07:13;11.07;;;5.28;;
74945;SDS011;63509;45.250;38.102;2023-12-14T01:09:39;17.70;;;7.35;;
74945;SDS011;63509;45.250;38.102;2023-12-14T01:12:05;9.93;;;5.15;;
74945;SDS011;63509;45.250;38.102;2023-12-14T01:14:31;12.52;;;6.10;;
74945;SDS011;63509;45.250;38.102;2023-12-14T01:16:57;11.85;;;6.30;;
74945;SDS011;63509;45.250;38.102;2023-12-14T01:19:24;11.20;;;6.13;;
74945;SDS011;63509;45.250;38.102;2023-12-14T01:21:51;17.10;;;5.78;;
74945;SDS011;63509;45.250;38.102;2023-12-14T01:24:17;16.85;;;5.05;;
74945;SDS011;63509;45.250;38.102;2023-12-14T01:26:43;12.30;;;6.50;;
74945;SDS011;63509;45.250;38.102;2023-12-14T01:29:09;14.38;;;6.13;;
74945;SDS011;63509;45.250;38.102;2023-12-14T01:31:36;11.35;;;4.68;;
74945;SDS011;63509;45.250;38.102;2023-12-14T01:34:02;10.05;;;5.80;;
74945;SDS011;63509;45.250;38.102;2023-12-14T01:36:28;23.05;;;5.78;;
74945;SDS011;63509;45.250;38.102;2023-12-14T01:38:55;10.32;;;5.13;;
74945;SDS011;63509;45.250;38.102;2023-12-14T01:41:21;12.35;;;5.80;;
74945;SDS011;63509;45.250;38.102;2023-12-14T01:43:47;10.00;;;4.80;;
74945;SDS011;63509;45.250;38.102;2023-12-14T01:46:13;13.88;;;7.40;;
74945;SDS011;63509;45.250;38.102;2023-12-14T01:48:41;27.60;;;7.25;;
74945;SDS011;63509;45.250;38.102;2023-12-14T01:51:08;41.45;;;7.72;;
74945;SDS011;63509;45.250;38.102;2023-12-14T01:53:34;15.75;;;7.25;;
74945;SDS011;63509;45.250;38.102;2023-12-14T01:56:00;20.85;;;8.00;;
74945;SDS011;63509;45.250;38.102;2023-12-14T01:58:26;20.85;;;9.55;;
74945;SDS011;63509;45.250;38.102;2023-12-14T02:01:14;12.38;;;6.82;;
74945;SDS011;63509;45.250;38.102;2023-12-14T02:04:01;34.35;;;8.02;;
74945;SDS011;63509;45.250;38.102;2023-12-14T02:06:28;10.57;;;5.30;;
74945;SDS011;63509;45.250;38.102;2023-12-14T02:08:54;20.85;;;6.20;;
74945;SDS011;63509;45.250;38.102;2023-12-14T02:11:20;18.02;;;8.05;;
74945;SDS011;63509;45.250;38.102;2023-12-14T02:13:47;13.77;;;7.03;;
74945;SDS011;63509;45.250;38.102;2023-12-14T02:16:13;15.45;;;6.13;;
74945;SDS011;63509;45.250;38.102;2023-12-14T02:18:39;10.50;;;5.07;;
74945;SDS011;63509;45.250;38.102;2023-12-14T02:21:05;17.10;;;8.18;;
74945;SDS011;63509;45.250;38.102;2023-12-14T02:23:31;15.20;;;6.53;;
74945;SDS011;63509;45.250;38.102;2023-12-14T02:25:58;45.47;;;8.38;;
74945;SDS011;63509;45.250;38.102;2023-12-14T02:28:24;15.27;;;6.03;;
74945;SDS011;63509;45.250;38.102;2023-12-14T02:30:50;20.45;;;6.13;;
74945;SDS011;63509;45.250;38.102;2023-12-14T02:33:16;32.83;;;7.35;;
74945;SDS011;63509;45.250;38.102;2023-12-14T02:35:43;15.43;;;6.55;;
74945;SDS011;63509;45.250;38.102;2023-12-14T02:38:09;16.80;;;5.65;;
74945;SDS011;63509;45.250;38.102;2023-12-14T02:40:35;42.33;;;8.65;;
74945;SDS011;63509;45.250;38.102;2023-12-14T02:43:01;28.45;;;9.38;;
74945;SDS011;63509;45.250;38.102;2023-12-14T02:45:27;8.90;;;5.68;;
74945;SDS011;63509;45.250;38.102;2023-12-14T02:47:53;21.52;;;6.30;;
74945;SDS011;63509;45.250;38.102;2023-12-14T02:50:19;38.92;;;9.35;;
74945;SDS011;63509;45.250;38.102;2023-12-14T02:52:45;16.25;;;6.43;;
74945;SDS011;63509;45.250;38.102;2023-12-14T02:55:11;16.20;;;6.25;;
74945;SDS011;63509;45.250;38.102;2023-12-14T02:57:37;11.50;;;6.47;;
74945;SDS011;63509;45.250;38.102;2023-12-14T03:00:04;32.97;;;6.57;;
74945;SDS011;63509;45.250;38.102;2023-12-14T03:02:30;25.67;;;7.32;;
74945;SDS011;63509;45.250;38.102;2023-12-14T03:04:56;11.05;;;6.60;;
74945;SDS011;63509;45.250;38.102;2023-12-14T03:07:23;18.92;;;8.60;;
74945;SDS011;63509;45.250;38.102;2023-12-14T03:09:49;53.70;;;7.22;;
74945;SDS011;63509;45.250;38.102;2023-12-14T03:12:15;15.00;;;7.68;;
74945;SDS011;63509;45.250;38.102;2023-12-14T03:14:41;19.20;;;6.35;;
74945;SDS011;63509;45.250;38.102;2023-12-14T03:17:07;13.57;;;6.82;;
74945;SDS011;63509;45.250;38.102;2023-12-14T03:19:42;17.42;;;7.75;;
74945;SDS011;63509;45.250;38.102;2023-12-14T03:22:08;12.52;;;6.78;;
74945;SDS011;63509;45.250;38.102;2023-12-14T03:24:35;31.30;;;7.38;;
74945;SDS011;63509;45.250;38.102;2023-12-14T03:27:02;25.92;;;8.55;;
74945;SDS011;63509;45.250;38.102;2023-12-14T03:29:28;17.38;;;7.53;;
74945;SDS011;63509;45.250;38.102;2023-12-14T03:31:55;13.32;;;7.40;;
74945;SDS011;63509;45.250;38.102;2023-12-14T03:34:22;23.05;;;7.43;;
74945;SDS011;63509;45.250;38.102;2023-12-14T03:36:48;18.13;;;6.72;;
74945;SDS011;63509;45.250;38.102;2023-12-14T03:39:14;19.52;;;8.30;;
74945;SDS011;63509;45.250;38.102;2023-12-14T03:41:42;19.30;;;8.80;;
74945;SDS011;63509;45.250;38.102;2023-12-14T03:44:08;73.90;;;8.00;;
74945;SDS011;63509;45.250;38.102;2023-12-14T03:46:34;13.73;;;5.85;;
74945;SDS011;63509;45.250;38.102;2023-12-14T03:49:01;31.85;;;8.18;;
74945;SDS011;63509;45.250;38.102;2023-12-14T03:51:27;18.00;;;7.10;;
74945;SDS011;63509;45.250;38.102;2023-12-14T03:53:53;24.08;;;7.60;;
74945;SDS011;63509;45.250;38.102;2023-12-14T03:56:19;13.65;;;6.70;;
74945;SDS011;63509;45.250;38.102;2023-12-14T03:58:46;24.38;;;5.55;;
74945;SDS011;63509;45.250;38.102;2023-12-14T04:01:18;28.73;;;6.40;;
74945;SDS011;63509;45.250;38.102;2023-12-14T04:03:46;14.57;;;6.22;;
74945;SDS011;63509;45.250;38.102;2023-12-14T04:06:13;13.05;;;6.25;;
74945;SDS011;63509;45.250;38.102;2023-12-14T04:08:40;12.80;;;6.28;;
74945;SDS011;63509;45.250;38.102;2023-12-14T04:11:07;17.77;;;6.88;;
74945;SDS011;63509;45.250;38.102;2023-12-14T04:13:34;10.80;;;5.80;;
74945;SDS011;63509;45.250;38.102;2023-12-14T04:16:00;15.65;;;5.32;;
74945;SDS011;63509;45.250;38.102;2023-12-14T04:18:26;20.90;;;9.40;;
74945;SDS011;63509;45.250;38.102;2023-12-14T04:20:52;15.55;;;5.53;;
74945;SDS011;63509;45.250;38.102;2023-12-14T04:23:18;13.00;;;5.70;;
74945;SDS011;63509;45.250;38.102;2023-12-14T04:25:44;18.63;;;6.55;;
74945;SDS011;63509;45.250;38.102;2023-12-14T04:28:10;44.58;;;7.72;;
74945;SDS011;63509;45.250;38.102;2023-12-14T04:30:36;17.27;;;7.78;;
74945;SDS011;63509;45.250;38.102;2023-12-14T04:33:02;16.30;;;6.88;;
74945;SDS011;63509;45.250;38.102;2023-12-14T04:35:28;22.42;;;6.05;;
74945;SDS011;63509;45.250;38.102;2023-12-14T04:37:56;7.93;;;4.72;;
74945;SDS011;63509;45.250;38.102;2023-12-14T04:40:22;14.63;;;6.55;;
74945;SDS011;63509;45.250;38.102;2023-12-14T04:42:48;19.70;;;7.07;;
74945;SDS011;63509;45.250;38.102;2023-12-14T04:45:14;12.73;;;6.03;;
74945;SDS011;63509;45.250;38.102;2023-12-14T04:47:42;26.02;;;7.00;;
74945;SDS011;63509;45.250;38.102;2023-12-14T04:50:08;11.45;;;6.00;;
74945;SDS011;63509;45.250;38.102;2023-12-14T04:52:34;13.68;;;6.30;;
74945;SDS011;63509;45.250;38.102;2023-12-14T04:55:00;9.93;;;3.50;;
74945;SDS011;63509;45.250;38.102;2023-12-14T04:57:26;12.43;;;6.15;;
74945;SDS011;63509;45.250;38.102;2023-12-14T04:59:52;19.42;;;7.25;;
74945;SDS011;63509;45.250;38.102;2023-12-14T05:02:18;22.13;;;6.65;;
74945;SDS011;63509;45.250;38.102;2023-12-14T05:04:44;24.13;;;4.47;;
74945;SDS011;63509;45.250;38.102;2023-12-14T05:07:11;14.07;;;4.90;;
74945;SDS011;63509;45.250;38.102;2023-12-14T05:09:37;11.63;;;6.85;;
74945;SDS011;63509;45.250;38.102;2023-12-14T05:12:03;34.42;;;7.57;;
74945;SDS011;63509;45.250;38.102;2023-12-14T05:14:29;16.48;;;6.55;;
74945;SDS011;63509;45.250;38.102;2023-12-14T05:16:56;13.55;;;5.55;;
74945;SDS011;63509;45.250;38.102;2023-12-14T05:19:22;31.42;;;6.53;;
74945;SDS011;63509;45.250;38.102;2023-12-14T05:21:48;19.48;;;8.68;;
74945;SDS011;63509;45.250;38.102;2023-12-14T05:24:14;29.40;;;9.82;;
74945;SDS011;63509;45.250;38.102;2023-12-14T05:26:40;23.10;;;8.50;;
74945;SDS011;63509;45.250;38.102;2023-12-14T05:29:06;21.10;;;6.00;;
74945;SDS011;63509;45.250;38.102;2023-12-14T05:31:32;8.15;;;4.90;;
74945;SDS011;63509;45.250;38.102;2023-12-14T05:33:59;45.97;;;8.40;;
74945;SDS011;63509;45.250;38.102;2023-12-14T05:36:25;20.45;;;8.40;;
74945;SDS011;63509;45.250;38.102;2023-12-14T05:38:51;18.10;;;7.03;;
74945;SDS011;63509;45.250;38.102;2023-12-14T05:41:17;13.07;;;5.60;;
74945;SDS011;63509;45.250;38.102;2023-12-14T05:43:43;7.38;;;4.57;;
74945;SDS011;63509;45.250;38.102;2023-12-14T05:46:09;11.18;;;6.18;;
74945;SDS011;63509;45.250;38.102;2023-12-14T05:48:46;23.98;;;5.93;;
74945;SDS011;63509;45.250;38.102;2023-12-14T05:51:12;7.55;;;4.40;;
74945;SDS011;63509;45.250;38.102;2023-12-14T05:53:38;10.55;;;3.80;;
74945;SDS011;63509;45.250;38.102;2023-12-14T05:56:05;14.95;;;5.35;;
74945;SDS011;63509;45.250;38.102;2023-12-14T05:58:32;13.45;;;4.45;;
74945;SDS011;63509;45.250;38.102;2023-12-14T06:00:58;7.25;;;4.10;;
74945;SDS011;63509;45.250;38.102;2023-12-14T06:03:24;15.15;;;5.32;;
74945;SDS011;63509;45.250;38.102;2023-12-14T06:05:50;26.63;;;5.13;;
74945;SDS011;63509;45.250;38.102;2023-12-14T06:08:16;11.25;;;4.65;;
74945;SDS011;63509;45.250;38.102;2023-12-14T06:10:42;9.00;;;4.15;;
74945;SDS011;63509;45.250;38.102;2023-12-14T06:13:08;12.38;;;5.43;;
74945;SDS011;63509;45.250;38.102;2023-12-14T06:15:34;10.70;;;3.78;;
74945;SDS011;63509;45.250;38.102;2023-12-14T06:18:00;8.25;;;4.18;;
74945;SDS011;63509;45.250;38.102;2023-12-14T06:20:27;8.65;;;4.60;;
74945;SDS011;63509;45.250;38.102;2023-12-14T06:22:53;12.23;;;4.72;;
74945;SDS011;63509;45.250;38.102;2023-12-14T06:25:19;8.75;;;4.00;;
74945;SDS011;63509;45.250;38.102;2023-12-14T06:27:46;27.80;;;5.15;;
74945;SDS011;63509;45.250;38.102;2023-12-14T06:30:13;6.28;;;3.85;;
74945;SDS011;63509;45.250;38.102;2023-12-14T06:32:39;7.65;;;3.60;;
74945;SDS011;63509;45.250;38.102;2023-12-14T06:35:06;7.75;;;3.38;;
74945;SDS011;63509;45.250;38.102;2023-12-14T06:37:32;7.72;;;3.13;;
74945;SDS011;63509;45.250;38.102;2023-12-14T06:39:58;11.10;;;4.53;;
74945;SDS011;63509;45.250;38.102;2023-12-14T06:42:26;15.65;;;5.07;;
74945;SDS011;63509;45.250;38.102;2023-12-14T06:47:19;7.93;;;3.97;;
74945;SDS011;63509;45.250;38.102;2023-12-14T06:49:45;12.77;;;4.68;;
74945;SDS011;63509;45.250;38.102;2023-12-14T06:52:11;7.45;;;3.65;;
74945;SDS011;63509;45.250;38.102;2023-12-14T06:54:37;14.85;;;4.53;;
74945;SDS011;63509;45.250;38.102;2023-12-14T06:57:04;10.25;;;4.30;;
74945;SDS011;63509;45.250;38.102;2023-12-14T06:59:30;14.43;;;5.72;;
74945;SDS011;63509;45.250;38.102;2023-12-14T07:01:56;8.63;;;4.80;;
74945;SDS011;63509;45.250;38.102;2023-12-14T07:04:22;8.77;;;4.18;;
74945;SDS011;63509;45.250;38.102;2023-12-14T07:06:52;11.73;;;4.60;;
74945;SDS011;63509;45.250;38.102;2023-12-14T07:09:18;11.85;;;5.97;;
74945;SDS011;63509;45.250;38.102;2023-12-14T07:11:44;14.20;;;5.50;;
74945;SDS011;63509;45.250;38.102;2023-12-14T07:14:11;12.55;;;5.95;;
74945;SDS011;63509;45.250;38.102;2023-12-14T07:16:38;10.63;;;4.00;;
74945;SDS011;63509;45.250;38.102;2023-12-14T07:19:04;7.38;;;3.92;;
74945;SDS011;63509;45.250;38.102;2023-12-14T07:21:30;7.50;;;4.80;;
74945;SDS011;63509;45.250;38.102;2023-12-14T07:23:56;11.38;;;5.82;;
74945;SDS011;63509;45.250;38.102;2023-12-14T07:26:23;11.02;;;5.15;;
74945;SDS011;63509;45.250;38.102;2023-12-14T07:28:49;8.07;;;4.90;;
74945;SDS011;63509;45.250;38.102;2023-12-14T07:31:15;9.43;;;5.20;;
74945;SDS011;63509;45.250;38.102;2023-12-14T07:33:41;15.10;;;4.93;;
74945;SDS011;63509;45.250;38.102;2023-12-14T07:36:07;7.35;;;5.13;;
74945;SDS011;63509;45.250;38.102;2023-12-14T07:38:34;10.38;;;4.72;;
74945;SDS011;63509;45.250;38.102;2023-12-14T07:41:00;8.57;;;4.63;;
74945;SDS011;63509;45.250;38.102;2023-12-14T07:43:26;12.93;;;6.50;;
74945;SDS011;63509;45.250;38.102;2023-12-14T07:45:52;10.23;;;5.30;;
74945;SDS011;63509;45.250;38.102;2023-12-14T07:48:18;13.77;;;5.68;;
74945;SDS011;63509;45.250;38.102;2023-12-14T07:50:44;10.27;;;5.78;;
74945;SDS011;63509;45.250;38.102;2023-12-14T07:53:11;11.95;;;6.57;;
74945;SDS011;63509;45.250;38.102;2023-12-14T07:55:37;8.82;;;5.03;;
74945;SDS011;63509;45.250;38.102;2023-12-14T07:58:03;15.75;;;4.70;;
74945;SDS011;63509;45.250;38.102;2023-12-14T08:00:29;9.88;;;5.05;;
74945;SDS011;63509;45.250;38.102;2023-12-14T08:02:57;11.90;;;5.53;;
74945;SDS011;63509;45.250;38.102;2023-12-14T08:05:23;10.23;;;5.47;;
74945;SDS011;63509;45.250;38.102;2023-12-14T08:07:49;21.52;;;5.38;;
74945;SDS011;63509;45.250;38.102;2023-12-14T08:10:18;8.75;;;4.90;;
74945;SDS011;63509;45.250;38.102;2023-12-14T08:12:44;17.27;;;5.13;;
74945;SDS011;63509;45.250;38.102;2023-12-14T08:15:12;18.40;;;5.45;;
74945;SDS011;63509;45.250;38.102;2023-12-14T08:17:39;17.38;;;6.00;;
74945;SDS011;63509;45.250;38.102;2023-12-14T08:20:06;17.00;;;5.85;;
74945;SDS011;63509;45.250;38.102;2023-12-14T08:22:34;7.65;;;5.05;;
74945;SDS011;63509;45.250;38.102;2023-12-14T08:25:01;11.02;;;5.60;;
74945;SDS011;63509;45.250;38.102;2023-12-14T08:27:29;13.65;;;5.43;;
74945;SDS011;63509;45.250;38.102;2023-12-14T08:29:55;15.50;;;5.32;;
74945;SDS011;63509;45.250;38.102;2023-12-14T08:32:21;11.38;;;6.00;;
74945;SDS011;63509;45.250;38.102;2023-12-14T08:34:47;9.90;;;4.90;;
74945;SDS011;63509;45.250;38.102;2023-12-14T08:37:14;9.75;;;4.85;;
74945;SDS011;63509;45.250;38.102;2023-12-14T08:39:40;20.33;;;6.53;;
74945;SDS011;63509;45.250;38.102;2023-12-14T08:42:06;7.65;;;4.60;;
74945;SDS011;63509;45.250;38.102;2023-12-14T08:44:32;26.15;;;5.65;;
74945;SDS011;63509;45.250;38.102;2023-12-14T08:46:58;10.48;;;4.78;;
74945;SDS011;63509;45.250;38.102;2023-12-14T08:49:25;11.98;;;6.18;;
74945;SDS011;63509;45.250;38.102;2023-12-14T08:51:51;16.00;;;5.28;;
74945;SDS011;63509;45.250;38.102;2023-12-14T08:54:17;11.30;;;5.03;;
74945;SDS011;63509;45.250;38.102;2023-12-14T08:56:43;13.25;;;5.00;;
74945;SDS011;63509;45.250;38.102;2023-12-14T08:59:09;20.30;;;5.65;;
74945;SDS011;63509;45.250;38.102;2023-12-14T09:01:35;12.80;;;6.05;;
74945;SDS011;63509;45.250;38.102;2023-12-14T09:04:01;23.45;;;6.05;;
74945;SDS011;63509;45.250;38.102;2023-12-14T09:06:28;30.00;;;6.25;;
74945;SDS011;63509;45.250;38.102;2023-12-14T09:08:54;13.25;;;4.53;;
74945;SDS011;63509;45.250;38.102;2023-12-14T09:11:20;10.98;;;4.72;;
74945;SDS011;63509;45.250;38.102;2023-12-14T09:13:46;14.63;;;5.32;;
74945;SDS011;63509;45.250;38.102;2023-12-14T09:16:12;9.52;;;6.28;;
74945;SDS011;63509;45.250;38.102;2023-12-14T09:18:38;17.42;;;5.45;;
74945;SDS011;63509;45.250;38.102;2023-12-14T09:21:05;15.98;;;6.65;;
74945;SDS011;63509;45.250;38.102;2023-12-14T09:23:31;13.27;;;5.80;;
74945;SDS011;63509;45.250;38.102;2023-12-14T09:25:57;19.45;;;7.22;;
74945;SDS011;63509;45.250;38.102;2023-12-14T09:28:24;26.88;;;6.22;;
74945;SDS011;63509;45.250;38.102;2023-12-14T09:30:51;13.05;;;5.38;;
74945;SDS011;63509;45.250;38.102;2023-12-14T09:33:18;17.60;;;6.10;;
74945;SDS011;63509;45.250;38.102;2023-12-14T09:35:45;11.00;;;5.70;;
74945;SDS011;63509;45.250;38.102;2023-12-14T09:38:11;11.23;;;6.32;;
74945;SDS011;63509;45.250;38.102;2023-12-14T09:40:40;15.23;;;5.93;;
74945;SDS011;63509;45.250;38.102;2023-12-14T09:43:06;19.77;;;5.55;;
74945;SDS011;63509;45.250;38.102;2023-12-14T09:45:34;17.65;;;6.35;;
74945;SDS011;63509;45.250;38.102;2023-12-14T09:48:01;17.80;;;6.72;;
74945;SDS011;63509;45.250;38.102;2023-12-14T09:50:28;28.67;;;5.90;;
74945;SDS011;63509;45.250;38.102;2023-12-14T09:52:55;15.90;;;6.15;;
74945;SDS011;63509;45.250;38.102;2023-12-14T09:55:21;15.02;;;7.07;;
74945;SDS011;63509;45.250;38.102;2023-12-14T09:57:47;18.73;;;7.93;;
74945;SDS011;63509;45.250;38.102;2023-12-14T10:00:14;16.70;;;7.22;;
74945;SDS011;63509;45.250;38.102;2023-12-14T10:03:17;17.35;;;6.97;;
74945;SDS011;63509;45.250;38.102;2023-12-14T10:05:44;8.50;;;5.47;;
74945;SDS011;63509;45.250;38.102;2023-12-14T10:08:10;20.98;;;6.40;;
74945;SDS011;63509;45.250;38.102;2023-12-14T10:10:36;22.15;;;7.63;;
74945;SDS011;63509;45.250;38.102;2023-12-14T10:13:03;15.98;;;7.43;;
74945;SDS011;63509;45.250;38.102;2023-12-14T10:15:29;19.00;;;7.80;;
74945;SDS011;63509;45.250;38.102;2023-12-14T10:18:05;22.95;;;9.05;;
74945;SDS011;63509;45.250;38.102;2023-12-14T10:20:32;21.02;;;7.88;;
74945;SDS011;63509;45.250;38.102;2023-12-14T10:22:58;35.97;;;9.38;;
74945;SDS011;63509;45.250;38.102;2023-12-14T10:25:24;31.48;;;10.45;;
74945;SDS011;63509;45.250;38.102;2023-12-14T10:27:51;39.97;;;12.15;;
74945;SDS011;63509;45.250;38.102;2023-12-14T10:30:20;40.55;;;12.75;;
74945;SDS011;63509;45.250;38.102;2023-12-14T10:32:49;29.92;;;9.32;;
74945;SDS011;63509;45.250;38.102;2023-12-14T10:35:18;15.32;;;8.73;;
74945;SDS011;63509;45.250;38.102;2023-12-14T10:37:49;21.13;;;8.63;;
74945;SDS011;63509;45.250;38.102;2023-12-14T10:40:16;16.23;;;8.30;;
74945;SDS011;63509;45.250;38.102;2023-12-14T10:42:43;20.48;;;8.98;;
74945;SDS011;63509;45.250;38.102;2023-12-14T10:45:11;17.40;;;8.95;;
74945;SDS011;63509;45.250;38.102;2023-12-14T10:47:43;27.50;;;9.20;;
74945;SDS011;63509;45.250;38.102;2023-12-14T10:50:10;39.60;;;10.30;;
74945;SDS011;63509;45.250;38.102;2023-12-14T10:52:38;29.92;;;11.63;;
74945;SDS011;63509;45.250;38.102;2023-12-14T10:55:06;19.95;;;9.38;;
74945;SDS011;63509;45.250;38.102;2023-12-14T10:57:36;27.65;;;8.23;;
74945;SDS011;63509;45.250;38.102;2023-12-14T11:00:02;28.50;;;10.43;;
74945;SDS011;63509;45.250;38.102;2023-12-14T11:02:42;26.67;;;9.88;;
74945;SDS011;63509;45.250;38.102;2023-12-14T11:05:12;18.27;;;9.00;;
74945;SDS011;63509;45.250;38.102;2023-12-14T11:10:22;15.98;;;7.05;;
74945;SDS011;63509;45.250;38.102;2023-12-14T11:13:01;24.85;;;9.57;;
74945;SDS011;63509;45.250;38.102;2023-12-14T11:15:29;17.10;;;8.10;;
74945;SDS011;63509;45.250;38.102;2023-12-14T11:23:12;16.85;;;8.20;;
74945;SDS011;63509;45.250;38.102;2023-12-14T11:25:41;19.17;;;8.40;;
74945;SDS011;63509;45.250;38.102;2023-12-14T11:28:08;14.20;;;7.07;;
74945;SDS011;63509;45.250;38.102;2023-12-14T11:30:35;17.75;;;8.10;;
74945;SDS011;63509;45.250;38.102;2023-12-14T11:33:02;33.97;;;9.68;;
74945;SDS011;63509;45.250;38.102;2023-12-14T11:35:29;19.15;;;9.40;;
74945;SDS011;63509;45.250;38.102;2023-12-14T11:37:55;21.90;;;9.25;;
74945;SDS011;63509;45.250;38.102;2023-12-14T11:40:24;26.17;;;9.77;;
74945;SDS011;63509;45.250;38.102;2023-12-14T11:42:58;17.00;;;9.80;;
74945;SDS011;63509;45.250;38.102;2023-12-14T11:45:25;26.13;;;10.18;;
74945;SDS011;63509;45.250;38.102;2023-12-14T11:47:51;31.73;;;9.55;;
74945;SDS011;63509;45.250;38.102;2023-12-14T11:50:18;20.55;;;9.45;;
74945;SDS011;63509;45.250;38.102;2023-12-14T11:52:45;18.95;;;8.45;;
74945;SDS011;63509;45.250;38.102;2023-12-14T11:55:12;25.38;;;8.63;;
74945;SDS011;63509;45.250;38.102;2023-12-14T11:57:45;22.27;;;10.48;;
74945;SDS011;63509;45.250;38.102;2023-12-14T12:00:12;20.90;;;7.47;;
74945;SDS011;63509;45.250;38.102;2023-12-14T12:02:39;19.00;;;9.00;;
74945;SDS011;63509;45.250;38.102;2023-12-14T12:05:08;18.13;;;8.77;;
74945;SDS011;63509;45.250;38.102;2023-12-14T12:07:39;32.47;;;10.18;;
74945;SDS011;63509;45.250;38.102;2023-12-14T12:10:09;40.60;;;9.80;;
74945;SDS011;63509;45.250;38.102;2023-12-14T12:12:36;32.75;;;8.50;;
74945;SDS011;63509;45.250;38.102;2023-12-14T12:15:03;19.30;;;8.50;;
74945;SDS011;63509;45.250;38.102;2023-12-14T12:17:30;28.02;;;8.25;;
74945;SDS011;63509;45.250;38.102;2023-12-14T12:20:05;25.80;;;9.00;;
74945;SDS011;63509;45.250;38.102;2023-12-14T12:22:32;30.60;;;8.43;;
74945;SDS011;63509;45.250;38.102;2023-12-14T12:24:58;14.95;;;8.40;;
74945;SDS011;63509;45.250;38.102;2023-12-14T12:27:26;34.33;;;9.50;;
74945;SDS011;63509;45.250;38.102;2023-12-14T12:29:52;20.23;;;8.15;;
74945;SDS011;63509;45.250;38.102;2023-12-14T12:32:20;36.75;;;9.15;;
74945;SDS011;63509;45.250;38.102;2023-12-14T12:34:46;17.23;;;8.65;;
74945;SDS011;63509;45.250;38.102;2023-12-14T12:37:12;27.80;;;10.90;;
74945;SDS011;63509;45.250;38.102;2023-12-14T12:39:38;16.15;;;8.43;;
74945;SDS011;63509;45.250;38.102;2023-12-14T12:42:04;24.55;;;8.90;;
74945;SDS011;63509;45.250;38.102;2023-12-14T12:44:30;18.42;;;10.05;;
74945;SDS011;63509;45.250;38.102;2023-12-14T12:46:57;29.65;;;10.65;;
74945;SDS011;63509;45.250;38.102;2023-12-14T12:49:24;23.40;;;9.23;;
74945;SDS011;63509;45.250;38.102;2023-12-14T12:51:50;19.85;;;10.85;;
74945;SDS011;63509;45.250;38.102;2023-12-14T12:54:16;24.27;;;9.90;;
74945;SDS011;63509;45.250;38.102;2023-12-14T12:56:42;25.00;;;9.38;;
74945;SDS011;63509;45.250;38.102;2023-12-14T12:59:09;16.83;;;8.85;;
74945;SDS011;63509;45.250;38.102;2023-12-14T13:01:34;43.10;;;9.90;;
74945;SDS011;63509;45.250;38.102;2023-12-14T13:04:00;21.63;;;9.60;;
74945;SDS011;63509;45.250;38.102;2023-12-14T13:06:29;17.73;;;9.15;;
74945;SDS011;63509;45.250;38.102;2023-12-14T13:08:55;23.15;;;10.63;;
74945;SDS011;63509;45.250;38.102;2023-12-14T13:11:21;25.42;;;9.10;;
74945;SDS011;63509;45.250;38.102;2023-12-14T13:13:47;26.92;;;9.95;;
74945;SDS011;63509;45.250;38.102;2023-12-14T13:16:14;29.52;;;10.77;;
74945;SDS011;63509;45.250;38.102;2023-12-14T13:18:42;26.10;;;9.57;;
74945;SDS011;63509;45.250;38.102;2023-12-14T13:21:09;28.90;;;10.88;;
74945;SDS011;63509;45.250;38.102;2023-12-14T13:23:35;21.98;;;10.30;;
74945;SDS011;63509;45.250;38.102;2023-12-14T13:26:01;33.40;;;11.13;;
74945;SDS011;63509;45.250;38.102;2023-12-14T13:28:27;29.15;;;11.30;;
74945;SDS011;63509;45.250;38.102;2023-12-14T13:30:53;31.50;;;11.60;;
74945;SDS011;63509;45.250;38.102;2023-12-14T13:33:20;39.90;;;10.05;;
74945;SDS011;63509;45.250;38.102;2023-12-14T13:35:46;21.98;;;10.55;;
74945;SDS011;63509;45.250;38.102;2023-12-14T13:38:12;23.35;;;10.45;;
74945;SDS011;63509;45.250;38.102;2023-12-14T13:40:38;26.13;;;12.48;;
74945;SDS011;63509;45.250;38.102;2023-12-14T13:43:05;29.63;;;11.40;;
74945;SDS011;63509;45.250;38.102;2023-12-14T13:45:36;28.45;;;12.10;;
74945;SDS011;63509;45.250;38.102;2023-12-14T13:48:04;40.97;;;13.48;;
74945;SDS011;63509;45.250;38.102;2023-12-14T13:50:31;19.02;;;11.07;;
74945;SDS011;63509;45.250;38.102;2023-12-14T13:52:57;23.00;;;11.60;;
74945;SDS011;63509;45.250;38.102;2023-12-14T13:55:23;28.98;;;10.52;;
74945;SDS011;63509;45.250;38.102;2023-12-14T13:57:49;38.75;;;11.00;;
74945;SDS011;63509;45.250;38.102;2023-12-14T14:00:15;39.58;;;11.35;;
74945;SDS011;63509;45.250;38.102;2023-12-14T14:02:42;20.60;;;9.43;;
74945;SDS011;63509;45.250;38.102;2023-12-14T14:05:08;14.95;;;9.15;;
74945;SDS011;63509;45.250;38.102;2023-12-14T14:07:34;23.83;;;9.77;;
74945;SDS011;63509;45.250;38.102;2023-12-14T14:10:00;27.52;;;11.38;;
74945;SDS011;63509;45.250;38.102;2023-12-14T14:12:26;21.25;;;10.20;;
74945;SDS011;63509;45.250;38.102;2023-12-14T14:14:52;23.30;;;10.88;;
74945;SDS011;63509;45.250;38.102;2023-12-14T14:17:18;14.20;;;8.25;;
74945;SDS011;63509;45.250;38.102;2023-12-14T14:19:44;17.23;;;10.02;;
74945;SDS011;63509;45.250;38.102;2023-12-14T14:22:10;17.13;;;9.85;;
74945;SDS011;63509;45.250;38.102;2023-12-14T14:24:36;20.63;;;10.70;;
74945;SDS011;63509;45.250;38.102;2023-12-14T14:27:02;22.58;;;10.43;;
74945;SDS011;63509;45.250;38.102;2023-12-14T14:29:28;23.52;;;10.70;;